sensor_id;sensor_type;location;lat;lon;timestamp;temperature;humidity
14170;DHT22;63889;50.596;8.690;2022-12-04T00:01:47;2.60;99.90
14170;DHT22;63889;50.596;8.690;2022-12-04T00:04:17;2.70;99.90
14170;DHT22;63889;50.596;8.690;2022-12-04T00:06:42;2.70;99.90
14170;DHT22;63889;50.596;8.690;2022-12-04T00:09:08;2.60;99.90
14170;DHT22;63889;50.596;8.690;2022-12-04T00:11:34;2.50;99.90
14170;DHT22;63889;50.596;8.690;2022-12-04T00:14:00;2.60;99.90
14170;DHT22;63889;50.596;8.690;2022-12-04T00:16:28;2.80;99.90
14170;DHT22;63889;50.596;8.690;2022-12-04T00:18:54;2.70;99.90
14170;DHT22;63889;50.596;8.690;2022-12-04T00:21:21;2.90;99.90
14170;DHT22;63889;50.596;8.690;2022-12-04T00:23:47;2.90;99.90
14170;DHT22;63889;50.596;8.690;2022-12-04T00:26:22;2.90;99.90
14170;DHT22;63889;50.596;8.690;2022-12-04T00:28:50;2.80;99.90
14170;DHT22;63889;50.596;8.690;2022-12-04T00:31:21;2.70;99.90
14170;DHT22;63889;50.596;8.690;2022-12-04T00:33:48;2.70;99.90
14170;DHT22;63889;50.596;8.690;2022-12-04T00:36:16;2.90;99.90
14170;DHT22;63889;50.596;8.690;2022-12-04T00:38:43;3.00;99.90
14170;DHT22;63889;50.596;8.690;2022-12-04T00:41:11;2.90;99.90
14170;DHT22;63889;50.596;8.690;2022-12-04T00:43:36;3.00;99.90
14170;DHT22;63889;50.596;8.690;2022-12-04T00:46:02;3.00;99.90
14170;DHT22;63889;50.596;8.690;2022-12-04T00:48:28;3.10;99.90
14170;DHT22;63889;50.596;8.690;2022-12-04T00:50:54;3.10;99.90
14170;DHT22;63889;50.596;8.690;2022-12-04T00:53:20;3.20;99.90
14170;DHT22;63889;50.596;8.690;2022-12-04T00:55:46;3.20;99.90
14170;DHT22;63889;50.596;8.690;2022-12-04T00:58:11;3.10;99.90
14170;DHT22;63889;50.596;8.690;2022-12-04T01:00:39;3.10;99.90
14170;DHT22;63889;50.596;8.690;2022-12-04T01:03:05;3.20;99.90
14170;DHT22;63889;50.596;8.690;2022-12-04T01:05:31;3.20;99.90
14170;DHT22;63889;50.596;8.690;2022-12-04T01:07:57;3.10;99.90
14170;DHT22;63889;50.596;8.690;2022-12-04T01:10:23;3.10;99.90
14170;DHT22;63889;50.596;8.690;2022-12-04T01:12:50;3.20;99.90
14170;DHT22;63889;50.596;8.690;2022-12-04T01:15:16;3.10;99.90
14170;DHT22;63889;50.596;8.690;2022-12-04T01:17:41;3.00;99.90
14170;DHT22;63889;50.596;8.690;2022-12-04T01:20:07;3.10;99.90
14170;DHT22;63889;50.596;8.690;2022-12-04T01:22:33;3.00;99.90
14170;DHT22;63889;50.596;8.690;2022-12-04T01:24:58;2.80;99.90
14170;DHT22;63889;50.596;8.690;2022-12-04T01:27:24;2.80;99.90
14170;DHT22;63889;50.596;8.690;2022-12-04T01:29:49;2.90;99.90
14170;DHT22;63889;50.596;8.690;2022-12-04T01:32:15;2.80;99.90
14170;DHT22;63889;50.596;8.690;2022-12-04T01:34:41;2.80;99.90
14170;DHT22;63889;50.596;8.690;2022-12-04T01:37:06;2.70;99.90
14170;DHT22;63889;50.596;8.690;2022-12-04T01:39:35;2.70;99.90
14170;DHT22;63889;50.596;8.690;2022-12-04T01:42:01;2.60;99.90
14170;DHT22;63889;50.596;8.690;2022-12-04T01:44:29;2.60;99.90
14170;DHT22;63889;50.596;8.690;2022-12-04T01:46:59;2.60;99.90
14170;DHT22;63889;50.596;8.690;2022-12-04T01:49:33;2.70;99.90
14170;DHT22;63889;50.596;8.690;2022-12-04T01:52:06;2.70;99.90
14170;DHT22;63889;50.596;8.690;2022-12-04T01:54:36;2.90;99.90
14170;DHT22;63889;50.596;8.690;2022-12-04T01:57:16;3.00;99.90
14170;DHT22;63889;50.596;8.690;2022-12-04T01:59:51;2.60;99.90
14170;DHT22;63889;50.596;8.690;2022-12-04T02:02:21;2.60;99.90
14170;DHT22;63889;50.596;8.690;2022-12-04T02:04:48;2.60;99.90
14170;DHT22;63889;50.596;8.690;2022-12-04T02:07:14;2.50;99.90
14170;DHT22;63889;50.596;8.690;2022-12-04T02:09:41;2.60;99.90
14170;DHT22;63889;50.596;8.690;2022-12-04T02:12:22;2.60;99.90
14170;DHT22;63889;50.596;8.690;2022-12-04T02:25:56;2.30;99.90
14170;DHT22;63889;50.596;8.690;2022-12-04T02:28:28;2.30;99.90
14170;DHT22;63889;50.596;8.690;2022-12-04T02:30:59;2.30;99.90
14170;DHT22;63889;50.596;8.690;2022-12-04T02:33:28;2.40;99.90
14170;DHT22;63889;50.596;8.690;2022-12-04T02:36:12;2.50;99.90
14170;DHT22;63889;50.596;8.690;2022-12-04T02:38:56;2.30;99.90
14170;DHT22;63889;50.596;8.690;2022-12-04T02:41:39;2.20;99.90
14170;DHT22;63889;50.596;8.690;2022-12-04T02:44:23;2.00;99.90
14170;DHT22;63889;50.596;8.690;2022-12-04T02:46:55;2.00;99.90
14170;DHT22;63889;50.596;8.690;2022-12-04T02:49:26;1.90;99.90
14170;DHT22;63889;50.596;8.690;2022-12-04T02:51:54;1.90;99.90
14170;DHT22;63889;50.596;8.690;2022-12-04T02:54:25;1.90;99.90
14170;DHT22;63889;50.596;8.690;2022-12-04T02:56:53;1.90;99.90
14170;DHT22;63889;50.596;8.690;2022-12-04T02:59:43;2.00;99.90
14170;DHT22;63889;50.596;8.690;2022-12-04T03:02:41;2.30;99.90
14170;DHT22;63889;50.596;8.690;2022-12-04T03:05:14;2.00;99.90
14170;DHT22;63889;50.596;8.690;2022-12-04T03:07:48;2.00;99.90
14170;DHT22;63889;50.596;8.690;2022-12-04T03:10:18;2.00;99.90
14170;DHT22;63889;50.596;8.690;2022-12-04T03:12:58;2.00;99.90
14170;DHT22;63889;50.596;8.690;2022-12-04T03:15:47;2.10;99.90
14170;DHT22;63889;50.596;8.690;2022-12-04T03:20:39;2.20;99.90
14170;DHT22;63889;50.596;8.690;2022-12-04T03:23:15;2.30;99.90
14170;DHT22;63889;50.596;8.690;2022-12-04T03:26:21;2.30;99.90
14170;DHT22;63889;50.596;8.690;2022-12-04T03:32:07;2.20;99.90
14170;DHT22;63889;50.596;8.690;2022-12-04T03:37:12;2.40;99.90
14170;DHT22;63889;50.596;8.690;2022-12-04T03:39:47;2.50;99.90
14170;DHT22;63889;50.596;8.690;2022-12-04T03:42:26;2.50;99.90
14170;DHT22;63889;50.596;8.690;2022-12-04T03:45:00;2.60;99.90
14170;DHT22;63889;50.596;8.690;2022-12-04T03:47:34;2.70;99.90
14170;DHT22;63889;50.596;8.690;2022-12-04T03:50:11;2.70;99.90
14170;DHT22;63889;50.596;8.690;2022-12-04T03:52:49;2.40;99.90
14170;DHT22;63889;50.596;8.690;2022-12-04T03:55:44;2.20;99.90
14170;DHT22;63889;50.596;8.690;2022-12-04T03:58:15;2.10;99.90
14170;DHT22;63889;50.596;8.690;2022-12-04T04:00:43;2.10;99.90
14170;DHT22;63889;50.596;8.690;2022-12-04T04:03:15;2.30;99.90
14170;DHT22;63889;50.596;8.690;2022-12-04T04:05:46;2.40;99.90
14170;DHT22;63889;50.596;8.690;2022-12-04T04:08:15;2.20;99.90
14170;DHT22;63889;50.596;8.690;2022-12-04T04:11:05;2.30;99.90
14170;DHT22;63889;50.596;8.690;2022-12-04T04:13:43;2.30;99.90
14170;DHT22;63889;50.596;8.690;2022-12-04T04:16:32;2.30;99.90
14170;DHT22;63889;50.596;8.690;2022-12-04T04:19:18;2.30;99.90
14170;DHT22;63889;50.596;8.690;2022-12-04T04:22:06;2.20;99.90
14170;DHT22;63889;50.596;8.690;2022-12-04T04:25:02;2.00;99.90
14170;DHT22;63889;50.596;8.690;2022-12-04T04:27:28;1.90;99.90
14170;DHT22;63889;50.596;8.690;2022-12-04T04:29:53;1.90;99.90
14170;DHT22;63889;50.596;8.690;2022-12-04T04:32:42;2.00;99.90
14170;DHT22;63889;50.596;8.690;2022-12-04T04:35:37;2.10;99.90
14170;DHT22;63889;50.596;8.690;2022-12-04T04:38:17;2.00;99.90
14170;DHT22;63889;50.596;8.690;2022-12-04T04:43:37;1.90;99.90
14170;DHT22;63889;50.596;8.690;2022-12-04T04:46:07;1.80;99.90
14170;DHT22;63889;50.596;8.690;2022-12-04T04:48:39;1.90;99.90
14170;DHT22;63889;50.596;8.690;2022-12-04T04:51:06;2.00;99.90
14170;DHT22;63889;50.596;8.690;2022-12-04T04:53:44;1.90;99.90
14170;DHT22;63889;50.596;8.690;2022-12-04T04:56:11;2.00;99.90
14170;DHT22;63889;50.596;8.690;2022-12-04T04:58:37;1.80;99.90
14170;DHT22;63889;50.596;8.690;2022-12-04T05:01:10;1.80;99.90
14170;DHT22;63889;50.596;8.690;2022-12-04T05:03:36;1.90;99.90
14170;DHT22;63889;50.596;8.690;2022-12-04T05:06:02;2.00;99.90
14170;DHT22;63889;50.596;8.690;2022-12-04T05:08:28;2.10;99.90
14170;DHT22;63889;50.596;8.690;2022-12-04T05:10:53;2.00;99.90
14170;DHT22;63889;50.596;8.690;2022-12-04T05:13:20;2.10;99.90
14170;DHT22;63889;50.596;8.690;2022-12-04T05:16:02;2.00;99.90
14170;DHT22;63889;50.596;8.690;2022-12-04T05:18:28;2.10;99.90
14170;DHT22;63889;50.596;8.690;2022-12-04T05:20:54;2.30;99.90
14170;DHT22;63889;50.596;8.690;2022-12-04T05:23:20;2.20;99.90
14170;DHT22;63889;50.596;8.690;2022-12-04T05:25:46;2.10;99.90
14170;DHT22;63889;50.596;8.690;2022-12-04T05:28:12;2.10;99.90
14170;DHT22;63889;50.596;8.690;2022-12-04T05:30:38;2.20;99.90
14170;DHT22;63889;50.596;8.690;2022-12-04T05:33:03;2.10;99.90
14170;DHT22;63889;50.596;8.690;2022-12-04T05:35:29;2.10;99.90
14170;DHT22;63889;50.596;8.690;2022-12-04T05:37:55;2.10;99.90
14170;DHT22;63889;50.596;8.690;2022-12-04T05:40:20;2.10;99.90
14170;DHT22;63889;50.596;8.690;2022-12-04T05:42:46;2.20;99.90
14170;DHT22;63889;50.596;8.690;2022-12-04T05:45:11;2.10;99.90
14170;DHT22;63889;50.596;8.690;2022-12-04T05:47:38;2.10;99.90
14170;DHT22;63889;50.596;8.690;2022-12-04T05:50:06;2.20;99.90
14170;DHT22;63889;50.596;8.690;2022-12-04T05:52:31;2.20;99.90
14170;DHT22;63889;50.596;8.690;2022-12-04T05:54:57;2.30;99.90
14170;DHT22;63889;50.596;8.690;2022-12-04T05:57:22;2.30;99.90
14170;DHT22;63889;50.596;8.690;2022-12-04T05:59:49;2.40;99.90
14170;DHT22;63889;50.596;8.690;2022-12-04T06:02:15;2.40;99.90
14170;DHT22;63889;50.596;8.690;2022-12-04T06:04:40;2.30;99.90
14170;DHT22;63889;50.596;8.690;2022-12-04T06:07:06;2.30;99.90
14170;DHT22;63889;50.596;8.690;2022-12-04T06:09:32;2.40;99.90
14170;DHT22;63889;50.596;8.690;2022-12-04T06:11:57;2.30;99.90
14170;DHT22;63889;50.596;8.690;2022-12-04T06:14:23;2.40;99.90
14170;DHT22;63889;50.596;8.690;2022-12-04T06:16:49;2.40;99.90
14170;DHT22;63889;50.596;8.690;2022-12-04T06:19:17;2.30;99.90
14170;DHT22;63889;50.596;8.690;2022-12-04T06:21:45;2.30;99.90
14170;DHT22;63889;50.596;8.690;2022-12-04T06:24:14;2.30;99.90
14170;DHT22;63889;50.596;8.690;2022-12-04T06:26:41;2.50;99.90
14170;DHT22;63889;50.596;8.690;2022-12-04T06:29:06;2.60;99.90
14170;DHT22;63889;50.596;8.690;2022-12-04T06:31:32;2.60;99.90
14170;DHT22;63889;50.596;8.690;2022-12-04T06:34:00;2.50;99.90
14170;DHT22;63889;50.596;8.690;2022-12-04T06:36:26;2.50;99.90
14170;DHT22;63889;50.596;8.690;2022-12-04T06:38:54;2.50;99.90
14170;DHT22;63889;50.596;8.690;2022-12-04T06:41:20;2.70;99.90
14170;DHT22;63889;50.596;8.690;2022-12-04T06:43:47;2.30;99.90
14170;DHT22;63889;50.596;8.690;2022-12-04T06:46:15;2.40;99.90
14170;DHT22;63889;50.596;8.690;2022-12-04T06:48:43;2.60;99.90
14170;DHT22;63889;50.596;8.690;2022-12-04T06:51:15;2.70;99.90
14170;DHT22;63889;50.596;8.690;2022-12-04T06:53:40;2.80;99.90
14170;DHT22;63889;50.596;8.690;2022-12-04T06:56:09;2.80;99.90
14170;DHT22;63889;50.596;8.690;2022-12-04T06:58:35;3.00;99.90
14170;DHT22;63889;50.596;8.690;2022-12-04T07:01:09;2.90;99.90
14170;DHT22;63889;50.596;8.690;2022-12-04T07:03:36;2.80;99.90
14170;DHT22;63889;50.596;8.690;2022-12-04T07:06:21;2.90;99.90
14170;DHT22;63889;50.596;8.690;2022-12-04T07:08:49;2.90;99.90
14170;DHT22;63889;50.596;8.690;2022-12-04T07:11:16;2.80;99.90
14170;DHT22;63889;50.596;8.690;2022-12-04T07:13:42;3.00;99.90
14170;DHT22;63889;50.596;8.690;2022-12-04T07:16:09;3.00;99.90
14170;DHT22;63889;50.596;8.690;2022-12-04T07:18:36;3.10;99.90
14170;DHT22;63889;50.596;8.690;2022-12-04T07:21:18;3.10;99.90
14170;DHT22;63889;50.596;8.690;2022-12-04T07:23:44;3.10;99.90
14170;DHT22;63889;50.596;8.690;2022-12-04T07:26:13;3.10;99.90
14170;DHT22;63889;50.596;8.690;2022-12-04T07:28:39;3.10;99.90
14170;DHT22;63889;50.596;8.690;2022-12-04T07:31:06;3.00;99.90
14170;DHT22;63889;50.596;8.690;2022-12-04T07:33:31;2.90;99.90
14170;DHT22;63889;50.596;8.690;2022-12-04T07:35:58;2.80;99.90
14170;DHT22;63889;50.596;8.690;2022-12-04T07:38:24;2.90;99.90
14170;DHT22;63889;50.596;8.690;2022-12-04T07:40:50;2.90;99.90
14170;DHT22;63889;50.596;8.690;2022-12-04T07:43:16;3.00;99.90
14170;DHT22;63889;50.596;8.690;2022-12-04T07:45:41;2.80;99.90
14170;DHT22;63889;50.596;8.690;2022-12-04T07:48:07;2.80;99.90
14170;DHT22;63889;50.596;8.690;2022-12-04T07:50:32;2.70;99.90
14170;DHT22;63889;50.596;8.690;2022-12-04T07:52:58;2.60;99.90
14170;DHT22;63889;50.596;8.690;2022-12-04T07:55:23;2.60;99.90
14170;DHT22;63889;50.596;8.690;2022-12-04T07:57:49;2.60;99.90
14170;DHT22;63889;50.596;8.690;2022-12-04T08:00:15;2.60;99.90
14170;DHT22;63889;50.596;8.690;2022-12-04T08:02:40;2.70;99.90
14170;DHT22;63889;50.596;8.690;2022-12-04T08:05:06;2.80;99.90
14170;DHT22;63889;50.596;8.690;2022-12-04T08:07:31;2.80;99.90
14170;DHT22;63889;50.596;8.690;2022-12-04T08:09:57;2.90;99.90
14170;DHT22;63889;50.596;8.690;2022-12-04T08:12:22;3.00;99.90
14170;DHT22;63889;50.596;8.690;2022-12-04T08:14:48;2.90;99.90
14170;DHT22;63889;50.596;8.690;2022-12-04T08:17:14;2.80;99.90
14170;DHT22;63889;50.596;8.690;2022-12-04T08:19:39;2.80;99.90
14170;DHT22;63889;50.596;8.690;2022-12-04T08:22:05;2.80;99.90
14170;DHT22;63889;50.596;8.690;2022-12-04T08:24:31;2.90;99.90
14170;DHT22;63889;50.596;8.690;2022-12-04T08:26:56;2.70;99.90
14170;DHT22;63889;50.596;8.690;2022-12-04T08:29:22;2.70;99.90
14170;DHT22;63889;50.596;8.690;2022-12-04T08:31:48;2.80;99.90
14170;DHT22;63889;50.596;8.690;2022-12-04T08:34:13;2.90;99.90
14170;DHT22;63889;50.596;8.690;2022-12-04T08:36:39;2.90;99.90
14170;DHT22;63889;50.596;8.690;2022-12-04T08:39:05;2.80;99.90
14170;DHT22;63889;50.596;8.690;2022-12-04T08:41:31;3.00;99.90
14170;DHT22;63889;50.596;8.690;2022-12-04T08:43:56;2.90;99.90
14170;DHT22;63889;50.596;8.690;2022-12-04T08:46:24;2.90;99.90
14170;DHT22;63889;50.596;8.690;2022-12-04T08:48:50;2.90;99.90
14170;DHT22;63889;50.596;8.690;2022-12-04T08:51:21;3.10;99.90
14170;DHT22;63889;50.596;8.690;2022-12-04T08:53:47;3.10;99.90
14170;DHT22;63889;50.596;8.690;2022-12-04T08:56:16;3.20;99.90
14170;DHT22;63889;50.596;8.690;2022-12-04T08:58:42;3.30;99.90
14170;DHT22;63889;50.596;8.690;2022-12-04T09:01:10;3.20;99.90
14170;DHT22;63889;50.596;8.690;2022-12-04T09:03:36;3.20;99.90
14170;DHT22;63889;50.596;8.690;2022-12-04T09:06:03;3.00;99.90
14170;DHT22;63889;50.596;8.690;2022-12-04T09:08:29;3.00;99.90
14170;DHT22;63889;50.596;8.690;2022-12-04T09:11:02;2.80;99.90
14170;DHT22;63889;50.596;8.690;2022-12-04T09:13:27;2.70;99.90
14170;DHT22;63889;50.596;8.690;2022-12-04T09:15:53;2.80;99.90
14170;DHT22;63889;50.596;8.690;2022-12-04T09:18:18;2.90;99.90
14170;DHT22;63889;50.596;8.690;2022-12-04T09:20:44;3.00;99.90
14170;DHT22;63889;50.596;8.690;2022-12-04T09:23:09;3.10;99.90
14170;DHT22;63889;50.596;8.690;2022-12-04T09:25:36;3.10;99.90
14170;DHT22;63889;50.596;8.690;2022-12-04T09:28:02;3.00;99.90
14170;DHT22;63889;50.596;8.690;2022-12-04T09:30:28;2.90;99.90
14170;DHT22;63889;50.596;8.690;2022-12-04T09:32:53;2.90;99.90
14170;DHT22;63889;50.596;8.690;2022-12-04T09:35:19;2.80;99.90
14170;DHT22;63889;50.596;8.690;2022-12-04T09:37:45;2.80;99.90
14170;DHT22;63889;50.596;8.690;2022-12-04T09:40:29;2.90;99.90
14170;DHT22;63889;50.596;8.690;2022-12-04T09:45:50;3.10;99.90
14170;DHT22;63889;50.596;8.690;2022-12-04T09:48:18;3.00;99.90
14170;DHT22;63889;50.596;8.690;2022-12-04T09:50:46;3.10;99.90
14170;DHT22;63889;50.596;8.690;2022-12-04T09:53:17;2.90;99.90
14170;DHT22;63889;50.596;8.690;2022-12-04T09:56:04;3.00;99.90
14170;DHT22;63889;50.596;8.690;2022-12-04T10:01:46;2.90;99.90
14170;DHT22;63889;50.596;8.690;2022-12-04T10:04:13;2.90;99.90
14170;DHT22;63889;50.596;8.690;2022-12-04T10:09:38;3.00;99.90
14170;DHT22;63889;50.596;8.690;2022-12-04T10:17:42;2.90;99.90
14170;DHT22;63889;50.596;8.690;2022-12-04T10:25:53;2.90;99.90
14170;DHT22;63889;50.596;8.690;2022-12-04T10:28:33;3.10;99.90
14170;DHT22;63889;50.596;8.690;2022-12-04T10:31:02;3.20;99.90
14170;DHT22;63889;50.596;8.690;2022-12-04T10:36:33;3.20;99.90
14170;DHT22;63889;50.596;8.690;2022-12-04T10:41:55;3.10;99.90
14170;DHT22;63889;50.596;8.690;2022-12-04T10:44:22;3.20;99.90
14170;DHT22;63889;50.596;8.690;2022-12-04T10:46:49;3.30;99.90
14170;DHT22;63889;50.596;8.690;2022-12-04T10:49:29;3.10;99.90
14170;DHT22;63889;50.596;8.690;2022-12-04T10:51:56;3.10;99.90
14170;DHT22;63889;50.596;8.690;2022-12-04T10:57:05;2.90;99.90
14170;DHT22;63889;50.596;8.690;2022-12-04T10:59:32;2.90;99.90
14170;DHT22;63889;50.596;8.690;2022-12-04T11:04:54;3.20;99.90
14170;DHT22;63889;50.596;8.690;2022-12-04T11:07:23;3.20;99.90
14170;DHT22;63889;50.596;8.690;2022-12-04T11:10:16;3.10;99.90
14170;DHT22;63889;50.596;8.690;2022-12-04T11:12:56;3.20;99.90
14170;DHT22;63889;50.596;8.690;2022-12-04T11:15:22;3.10;99.90
14170;DHT22;63889;50.596;8.690;2022-12-04T11:17:48;3.10;99.90
14170;DHT22;63889;50.596;8.690;2022-12-04T11:20:23;3.20;99.90
14170;DHT22;63889;50.596;8.690;2022-12-04T11:22:56;3.30;99.90
14170;DHT22;63889;50.596;8.690;2022-12-04T11:25:26;3.30;99.90
14170;DHT22;63889;50.596;8.690;2022-12-04T11:27:55;3.40;99.90
14170;DHT22;63889;50.596;8.690;2022-12-04T11:30:25;3.40;99.90
14170;DHT22;63889;50.596;8.690;2022-12-04T11:32:54;3.40;99.90
14170;DHT22;63889;50.596;8.690;2022-12-04T11:35:25;3.40;99.90
14170;DHT22;63889;50.596;8.690;2022-12-04T11:38:05;3.40;99.90
14170;DHT22;63889;50.596;8.690;2022-12-04T11:40:32;3.30;99.90
14170;DHT22;63889;50.596;8.690;2022-12-04T11:43:14;3.40;99.90
14170;DHT22;63889;50.596;8.690;2022-12-04T11:45:41;3.40;99.90
14170;DHT22;63889;50.596;8.690;2022-12-04T11:48:17;3.50;99.90
14170;DHT22;63889;50.596;8.690;2022-12-04T11:50:53;3.50;99.90
14170;DHT22;63889;50.596;8.690;2022-12-04T11:53:50;3.40;99.90
14170;DHT22;63889;50.596;8.690;2022-12-04T11:56:28;3.60;99.90
14170;DHT22;63889;50.596;8.690;2022-12-04T12:01:41;3.80;99.90
14170;DHT22;63889;50.596;8.690;2022-12-04T12:04:28;3.80;99.90
14170;DHT22;63889;50.596;8.690;2022-12-04T12:10:01;3.70;99.90
14170;DHT22;63889;50.596;8.690;2022-12-04T12:12:52;3.70;99.90
14170;DHT22;63889;50.596;8.690;2022-12-04T12:21:11;3.60;99.90
14170;DHT22;63889;50.596;8.690;2022-12-04T12:26:54;3.60;99.90
14170;DHT22;63889;50.596;8.690;2022-12-04T12:29:54;3.80;99.90
14170;DHT22;63889;50.596;8.690;2022-12-04T12:35:02;3.90;99.90
14170;DHT22;63889;50.596;8.690;2022-12-04T12:37:51;3.70;99.90
14170;DHT22;63889;50.596;8.690;2022-12-04T12:40:34;3.60;99.90
14170;DHT22;63889;50.596;8.690;2022-12-04T12:43:29;3.60;99.90
14170;DHT22;63889;50.596;8.690;2022-12-04T12:49:03;3.50;99.90
14170;DHT22;63889;50.596;8.690;2022-12-04T12:51:36;3.50;99.90
14170;DHT22;63889;50.596;8.690;2022-12-04T12:54:13;3.60;99.90
14170;DHT22;63889;50.596;8.690;2022-12-04T12:56:52;3.60;99.90
14170;DHT22;63889;50.596;8.690;2022-12-04T12:59:23;3.60;99.90
14170;DHT22;63889;50.596;8.690;2022-12-04T13:04:56;3.60;99.90
14170;DHT22;63889;50.596;8.690;2022-12-04T13:07:58;3.70;99.90
14170;DHT22;63889;50.596;8.690;2022-12-04T13:10:36;3.70;99.90
14170;DHT22;63889;50.596;8.690;2022-12-04T13:13:26;3.70;99.90
14170;DHT22;63889;50.596;8.690;2022-12-04T13:16:02;3.90;99.90
14170;DHT22;63889;50.596;8.690;2022-12-04T13:18:34;3.80;99.90
14170;DHT22;63889;50.596;8.690;2022-12-04T13:21:08;3.80;99.90
14170;DHT22;63889;50.596;8.690;2022-12-04T13:27:14;3.90;99.90
14170;DHT22;63889;50.596;8.690;2022-12-04T13:30:07;3.90;99.90
14170;DHT22;63889;50.596;8.690;2022-12-04T13:36:05;4.00;99.90
14170;DHT22;63889;50.596;8.690;2022-12-04T13:42:03;4.00;99.90
14170;DHT22;63889;50.596;8.690;2022-12-04T13:44:31;4.00;99.90
14170;DHT22;63889;50.596;8.690;2022-12-04T13:47:07;3.90;99.90
14170;DHT22;63889;50.596;8.690;2022-12-04T13:50:04;4.00;99.90
14170;DHT22;63889;50.596;8.690;2022-12-04T13:52:43;4.20;99.90
14170;DHT22;63889;50.596;8.690;2022-12-04T14:00:41;4.30;99.90
14170;DHT22;63889;50.596;8.690;2022-12-04T14:03:24;4.00;99.90
14170;DHT22;63889;50.596;8.690;2022-12-04T14:05:53;4.10;99.90
14170;DHT22;63889;50.596;8.690;2022-12-04T14:08:25;4.00;99.90
14170;DHT22;63889;50.596;8.690;2022-12-04T14:10:59;4.00;99.90
14170;DHT22;63889;50.596;8.690;2022-12-04T14:16:55;4.00;99.90
14170;DHT22;63889;50.596;8.690;2022-12-04T14:19:40;4.10;99.90
14170;DHT22;63889;50.596;8.690;2022-12-04T14:25:22;4.20;99.90
14170;DHT22;63889;50.596;8.690;2022-12-04T14:34:29;4.20;99.90
14170;DHT22;63889;50.596;8.690;2022-12-04T14:37:02;4.00;99.90
14170;DHT22;63889;50.596;8.690;2022-12-04T14:39:40;4.10;99.90
14170;DHT22;63889;50.596;8.690;2022-12-04T14:42:23;4.20;99.90
14170;DHT22;63889;50.596;8.690;2022-12-04T14:45:02;4.30;99.90
14170;DHT22;63889;50.596;8.690;2022-12-04T14:58:28;4.10;99.90
14170;DHT22;63889;50.596;8.690;2022-12-04T15:01:00;4.20;99.90
14170;DHT22;63889;50.596;8.690;2022-12-04T15:03:39;4.10;99.90
14170;DHT22;63889;50.596;8.690;2022-12-04T15:06:25;4.00;99.90
14170;DHT22;63889;50.596;8.690;2022-12-04T15:09:03;4.00;99.90
14170;DHT22;63889;50.596;8.690;2022-12-04T15:12:13;4.00;99.90
14170;DHT22;63889;50.596;8.690;2022-12-04T15:15:13;4.10;99.90
14170;DHT22;63889;50.596;8.690;2022-12-04T15:20:32;3.90;99.90
14170;DHT22;63889;50.596;8.690;2022-12-04T15:23:02;4.00;99.90
14170;DHT22;63889;50.596;8.690;2022-12-04T15:29:07;4.20;99.90
14170;DHT22;63889;50.596;8.690;2022-12-04T15:31:43;4.10;99.90
14170;DHT22;63889;50.596;8.690;2022-12-04T15:34:51;4.00;99.90
14170;DHT22;63889;50.596;8.690;2022-12-04T15:37:53;3.90;99.90
14170;DHT22;63889;50.596;8.690;2022-12-04T15:40:27;4.10;99.90
14170;DHT22;63889;50.596;8.690;2022-12-04T15:43:10;4.10;99.90
14170;DHT22;63889;50.596;8.690;2022-12-04T15:46:12;4.10;99.90
14170;DHT22;63889;50.596;8.690;2022-12-04T15:48:41;4.10;99.90
14170;DHT22;63889;50.596;8.690;2022-12-04T15:51:15;4.10;99.90
14170;DHT22;63889;50.596;8.690;2022-12-04T15:53:46;4.20;99.90
14170;DHT22;63889;50.596;8.690;2022-12-04T15:56:20;4.30;99.90
14170;DHT22;63889;50.596;8.690;2022-12-04T15:59:00;4.30;99.90
14170;DHT22;63889;50.596;8.690;2022-12-04T16:01:37;4.40;99.90
14170;DHT22;63889;50.596;8.690;2022-12-04T16:04:03;4.40;99.90
14170;DHT22;63889;50.596;8.690;2022-12-04T16:06:44;4.30;99.90
14170;DHT22;63889;50.596;8.690;2022-12-04T16:09:22;4.30;99.90
14170;DHT22;63889;50.596;8.690;2022-12-04T16:12:02;4.20;99.90
14170;DHT22;63889;50.596;8.690;2022-12-04T16:14:40;4.10;99.90
14170;DHT22;63889;50.596;8.690;2022-12-04T16:17:08;4.10;99.90
14170;DHT22;63889;50.596;8.690;2022-12-04T16:19:37;4.20;99.90
14170;DHT22;63889;50.596;8.690;2022-12-04T16:22:15;4.30;99.90
14170;DHT22;63889;50.596;8.690;2022-12-04T16:24:42;4.20;99.90
14170;DHT22;63889;50.596;8.690;2022-12-04T16:27:14;4.20;99.90
14170;DHT22;63889;50.596;8.690;2022-12-04T16:29:43;4.10;99.90
14170;DHT22;63889;50.596;8.690;2022-12-04T16:32:11;4.00;99.90
14170;DHT22;63889;50.596;8.690;2022-12-04T16:34:37;4.00;99.90
14170;DHT22;63889;50.596;8.690;2022-12-04T16:37:11;4.10;99.90
14170;DHT22;63889;50.596;8.690;2022-12-04T16:39:54;4.30;99.90
14170;DHT22;63889;50.596;8.690;2022-12-04T16:42:30;4.40;99.90
14170;DHT22;63889;50.596;8.690;2022-12-04T16:44:57;4.40;99.90
14170;DHT22;63889;50.596;8.690;2022-12-04T16:47:32;4.30;99.90
14170;DHT22;63889;50.596;8.690;2022-12-04T16:50:00;4.30;99.90
14170;DHT22;63889;50.596;8.690;2022-12-04T16:52:26;4.30;99.90
14170;DHT22;63889;50.596;8.690;2022-12-04T16:55:00;4.40;99.90
14170;DHT22;63889;50.596;8.690;2022-12-04T16:57:28;4.30;99.90
14170;DHT22;63889;50.596;8.690;2022-12-04T17:00:02;4.40;99.90
14170;DHT22;63889;50.596;8.690;2022-12-04T17:02:39;4.40;99.90
14170;DHT22;63889;50.596;8.690;2022-12-04T17:08:01;4.40;99.90
14170;DHT22;63889;50.596;8.690;2022-12-04T17:10:27;4.40;99.90
14170;DHT22;63889;50.596;8.690;2022-12-04T17:13:43;4.50;99.90
14170;DHT22;63889;50.596;8.690;2022-12-04T17:15:50;4.50;99.90
14170;DHT22;63889;50.596;8.690;2022-12-04T17:18:21;4.50;99.90
14170;DHT22;63889;50.596;8.690;2022-12-04T17:20:47;4.50;99.90
14170;DHT22;63889;50.596;8.690;2022-12-04T17:23:53;4.40;99.90
14170;DHT22;63889;50.596;8.690;2022-12-04T17:26:32;4.50;99.90
14170;DHT22;63889;50.596;8.690;2022-12-04T17:29:12;4.40;99.90
14170;DHT22;63889;50.596;8.690;2022-12-04T17:31:49;4.30;99.90
14170;DHT22;63889;50.596;8.690;2022-12-04T17:34:37;4.30;99.90
14170;DHT22;63889;50.596;8.690;2022-12-04T17:37:05;4.40;99.90
14170;DHT22;63889;50.596;8.690;2022-12-04T17:39:33;4.40;99.90
14170;DHT22;63889;50.596;8.690;2022-12-04T17:42:04;4.40;99.90
14170;DHT22;63889;50.596;8.690;2022-12-04T17:44:45;4.40;99.90
14170;DHT22;63889;50.596;8.690;2022-12-04T17:47:30;4.50;99.90
14170;DHT22;63889;50.596;8.690;2022-12-04T17:53:15;4.50;99.90
14170;DHT22;63889;50.596;8.690;2022-12-04T17:55:41;4.50;99.90
14170;DHT22;63889;50.596;8.690;2022-12-04T17:58:06;4.50;99.90
14170;DHT22;63889;50.596;8.690;2022-12-04T18:00:32;4.50;99.90
14170;DHT22;63889;50.596;8.690;2022-12-04T18:02:58;4.50;99.90
14170;DHT22;63889;50.596;8.690;2022-12-04T18:05:23;4.50;99.90
14170;DHT22;63889;50.596;8.690;2022-12-04T18:07:49;4.40;99.90
14170;DHT22;63889;50.596;8.690;2022-12-04T18:10:14;4.40;99.90
14170;DHT22;63889;50.596;8.690;2022-12-04T18:12:40;4.30;99.90
14170;DHT22;63889;50.596;8.690;2022-12-04T18:15:06;4.40;99.90
14170;DHT22;63889;50.596;8.690;2022-12-04T18:17:31;4.40;99.90
14170;DHT22;63889;50.596;8.690;2022-12-04T18:19:57;4.40;99.90
14170;DHT22;63889;50.596;8.690;2022-12-04T18:22:22;4.50;99.90
14170;DHT22;63889;50.596;8.690;2022-12-04T18:24:48;4.50;99.90